createdAt,value
2023-04-18T00:02:38.808Z,23.53
2023-04-18T00:07:31.225Z,24.63
2023-04-18T00:12:23.256Z,22.77
2023-04-18T00:17:16.145Z,26.33
2023-04-18T00:22:08.475Z,23.07
2023-04-18T00:27:01.638Z,25.37
2023-04-18T00:31:53.878Z,26.83
2023-04-18T00:36:46.653Z,24.20
2023-04-18T00:41:38.755Z,25.67
2023-04-18T00:46:30.874Z,25.47
2023-04-18T00:51:22.965Z,25.03
2023-04-18T00:56:14.978Z,25.13
2023-04-18T01:01:07.966Z,27.00
2023-04-18T01:12:01.976Z,26.50
2023-04-18T01:16:55.664Z,27.00
2023-04-18T01:21:48.054Z,28.87
2023-04-18T01:26:41.298Z,27.63
2023-04-18T01:31:41.131Z,28.37
2023-04-18T01:36:34.030Z,29.17
2023-04-18T01:41:29.783Z,29.90
2023-04-18T01:46:21.892Z,32.03
2023-04-18T01:51:14.229Z,31.57
2023-04-18T01:56:06.498Z,30.87
2023-04-18T02:01:00.308Z,28.43
2023-04-18T02:05:52.429Z,30.83
2023-04-18T02:10:44.574Z,32.70
2023-04-18T02:15:36.831Z,29.80
2023-04-18T02:20:33.625Z,30.77
2023-04-18T02:25:30.062Z,31.70
2023-04-18T02:30:23.045Z,32.40
2023-04-18T02:35:15.152Z,29.23
2023-04-18T02:40:09.186Z,30.80
2023-04-18T02:45:02.616Z,29.03
2023-04-18T02:49:55.356Z,30.43
2023-04-18T02:54:47.710Z,29.67
2023-04-18T02:59:45.748Z,26.77
2023-04-18T03:04:37.817Z,25.10
2023-04-18T03:09:33.156Z,24.70
2023-04-18T03:14:30.430Z,24.87
2023-04-18T03:19:22.899Z,23.40
2023-04-18T03:24:17.026Z,26.00
2023-04-18T03:29:13.717Z,27.77
2023-04-18T03:34:08.851Z,29.67
2023-04-18T03:39:01.328Z,28.53
2023-04-18T03:43:53.543Z,30.23
2023-04-18T03:48:45.752Z,29.20
2023-04-18T03:53:37.898Z,27.97
2023-04-18T03:58:30.230Z,34.20
2023-04-18T04:03:22.401Z,30.63
2023-04-18T04:08:15.513Z,29.30
2023-04-18T04:13:07.535Z,32.07
2023-04-18T04:18:05.498Z,29.13
2023-04-18T04:23:01.301Z,32.87
2023-04-18T04:27:55.681Z,29.73
2023-04-18T04:32:49.640Z,32.53
2023-04-18T04:37:42.318Z,29.97
2023-04-18T04:42:44.879Z,34.07
2023-04-18T04:47:43.162Z,32.23
2023-04-18T04:52:35.312Z,34.70
2023-04-18T04:57:28.478Z,33.17
2023-04-18T05:02:23.310Z,35.40
2023-04-18T05:07:15.751Z,31.87
2023-04-18T05:12:08.086Z,28.73
2023-04-18T05:17:00.300Z,28.17
2023-04-18T05:21:52.394Z,31.37
2023-04-18T05:26:44.522Z,28.00
2023-04-18T05:31:36.748Z,29.10
2023-04-18T05:36:28.986Z,26.23
2023-04-18T05:41:20.971Z,22.90
2023-04-18T05:46:14.139Z,22.63
2023-04-18T05:51:06.429Z,20.17
2023-04-18T05:56:00.360Z,22.10
2023-04-18T06:00:54.042Z,18.30
2023-04-18T06:05:46.168Z,23.70
2023-04-18T06:10:39.199Z,23.77
2023-04-18T06:15:31.669Z,25.57
2023-04-18T06:20:23.818Z,26.27
2023-04-18T06:25:16.213Z,26.67
2023-04-18T06:30:08.795Z,30.40
2023-04-18T06:35:02.394Z,29.40
2023-04-18T06:39:55.747Z,29.50
2023-04-18T06:44:47.860Z,26.57
2023-04-18T06:49:39.950Z,26.07
2023-04-18T06:54:32.089Z,24.83
2023-04-18T06:59:24.215Z,23.93
2023-04-18T07:04:16.669Z,24.07
2023-04-18T07:09:09.318Z,27.17
2023-04-18T07:14:01.474Z,23.53
2023-04-18T07:18:53.582Z,25.57
2023-04-18T07:23:45.845Z,28.30
2023-04-18T07:28:37.960Z,29.00
2023-04-18T07:33:33.694Z,26.93
2023-04-18T07:38:25.878Z,24.37
2023-04-18T07:43:19.773Z,23.30
2023-04-18T07:48:13.703Z,25.57
2023-04-18T07:53:06.244Z,22.20
2023-04-18T07:57:58.337Z,23.47
2023-04-18T08:02:50.968Z,21.63
2023-04-18T08:07:43.366Z,22.90
2023-04-18T08:12:36.712Z,20.60
2023-04-18T08:17:29.025Z,18.97
2023-04-18T08:22:21.088Z,23.40
2023-04-18T08:27:13.343Z,19.90
2023-04-18T08:32:07.941Z,23.10
2023-04-18T08:37:00.136Z,21.87
2023-04-18T08:41:59.253Z,18.70
2023-04-18T08:46:52.593Z,24.07
2023-04-18T08:51:47.290Z,22.10
2023-04-18T08:56:41.052Z,22.17
2023-04-18T09:01:58.880Z,18.67
2023-04-18T09:06:53.981Z,29.40
2023-04-18T09:11:46.049Z,20.87
2023-04-18T09:16:47.427Z,23.10
2023-04-18T09:21:41.497Z,35.37
2023-04-18T09:26:37.705Z,28.93
2023-04-18T09:31:30.531Z,22.40
2023-04-18T09:36:24.679Z,27.80
2023-04-18T09:41:20.728Z,31.40
2023-04-18T09:46:14.458Z,48.13
2023-04-18T09:51:16.009Z,40.67
2023-04-18T09:56:23.866Z,29.47
2023-04-18T10:01:16.836Z,25.73
2023-04-18T10:06:11.329Z,22.93
2023-04-18T10:11:03.407Z,24.60
2023-04-18T10:15:56.536Z,20.67
2023-04-18T10:20:48.748Z,22.13
2023-04-18T10:25:41.311Z,22.53
2023-04-18T10:30:54.604Z,20.77
2023-04-18T10:36:05.209Z,23.83
2023-04-18T10:41:33.768Z,25.83
2023-04-18T10:46:32.621Z,31.30
2023-04-18T10:51:24.810Z,30.27
2023-04-18T10:56:16.901Z,28.67
2023-04-18T11:01:13.814Z,27.17
2023-04-18T11:06:06.246Z,28.03
2023-04-18T11:11:00.025Z,27.63
2023-04-18T11:15:53.215Z,25.50
2023-04-18T11:20:50.200Z,23.60
2023-04-18T11:25:45.010Z,25.67
2023-04-18T11:30:40.695Z,22.37
2023-04-18T11:35:40.339Z,24.57
2023-04-18T11:40:32.409Z,25.33
2023-04-18T11:45:24.475Z,25.67
2023-04-18T11:50:16.625Z,22.97
2023-04-18T11:55:19.697Z,24.27
2023-04-18T12:00:12.584Z,23.73
2023-04-18T12:05:06.664Z,24.10
2023-04-18T12:09:59.009Z,24.83
2023-04-18T12:15:08.239Z,23.97
2023-04-18T12:20:10.747Z,23.30
2023-04-18T12:25:10.147Z,25.77
2023-04-18T12:30:02.213Z,22.70
2023-04-18T12:34:55.889Z,23.77
2023-04-18T12:39:47.922Z,24.53
2023-04-18T12:44:40.107Z,33.17
2023-04-18T12:49:32.115Z,40.10
2023-04-18T12:54:25.792Z,24.43
2023-04-18T12:59:18.369Z,21.80
2023-04-18T13:04:12.841Z,22.93
2023-04-18T13:09:05.464Z,21.63
2023-04-18T13:13:58.031Z,22.63
2023-04-18T13:18:50.129Z,25.27
2023-04-18T13:23:42.319Z,21.57
2023-04-18T13:28:34.300Z,24.53
2023-04-18T13:33:26.319Z,20.70
2023-04-18T13:38:18.378Z,19.53
2023-04-18T13:43:12.955Z,18.97
2023-04-18T13:48:05.954Z,20.50
2023-04-18T13:52:58.071Z,20.27
2023-04-18T13:57:50.208Z,19.60
2023-04-18T14:02:42.647Z,17.40
2023-04-18T14:07:35.506Z,16.73
2023-04-18T14:12:27.606Z,17.30
2023-04-18T14:17:19.694Z,16.03
2023-04-18T14:22:12.184Z,16.00
2023-04-18T14:27:04.210Z,16.97
2023-04-18T14:31:56.326Z,15.13
2023-04-18T14:36:48.322Z,17.17
2023-04-18T14:41:40.411Z,13.33
2023-04-18T14:46:32.616Z,13.37
2023-04-18T14:51:24.849Z,12.20
2023-04-18T14:56:20.933Z,24.47
2023-04-18T15:01:13.399Z,22.57
2023-04-18T15:06:05.654Z,30.03
2023-04-18T15:10:58.074Z,17.43
2023-04-18T15:15:54.264Z,17.70
2023-04-18T15:20:47.548Z,19.07
2023-04-18T15:25:40.141Z,22.27
2023-04-18T15:30:32.848Z,21.50
2023-04-18T15:35:25.220Z,20.80
2023-04-18T15:40:18.365Z,23.27
2023-04-18T15:45:11.013Z,24.13
2023-04-18T15:50:03.752Z,20.93
2023-04-18T15:54:57.894Z,20.70
2023-04-18T15:59:50.111Z,18.57
2023-04-18T16:04:42.118Z,21.53
2023-04-18T16:09:34.311Z,18.73
2023-04-18T16:14:26.292Z,18.37
2023-04-18T16:19:18.609Z,18.43
2023-04-18T16:24:10.864Z,41.50
2023-04-18T16:29:02.921Z,36.40
2023-04-18T16:33:55.370Z,21.87
2023-04-18T16:38:48.882Z,18.07
2023-04-18T16:43:40.938Z,18.83
2023-04-18T16:48:32.996Z,18.03
2023-04-18T16:53:25.520Z,18.40
2023-04-18T16:58:17.570Z,17.50
2023-04-18T17:03:10.167Z,16.37
2023-04-18T17:08:03.720Z,17.60
2023-04-18T17:12:56.235Z,18.10
2023-04-18T17:17:48.489Z,19.13
2023-04-18T17:22:41.227Z,16.77
2023-04-18T17:27:33.262Z,16.80
2023-04-18T17:32:25.431Z,17.70
2023-04-18T17:37:17.665Z,18.27
2023-04-18T17:42:10.131Z,16.80
2023-04-18T17:47:02.604Z,19.10
2023-04-18T17:51:54.630Z,16.07
2023-04-18T17:56:46.829Z,15.60
2023-04-18T18:01:39.928Z,15.47
2023-04-18T18:06:32.008Z,15.57
2023-04-18T18:11:24.027Z,15.83
2023-04-18T18:16:16.153Z,16.47
2023-04-18T18:21:08.310Z,16.63
2023-04-18T18:26:00.837Z,15.60
2023-04-18T18:30:53.961Z,16.03
2023-04-18T18:35:46.116Z,19.23
2023-04-18T18:40:38.154Z,20.50
2023-04-18T18:45:30.260Z,16.50
2023-04-18T18:50:24.515Z,18.57
2023-04-18T18:55:16.594Z,17.87
2023-04-18T19:00:13.406Z,19.63
2023-04-18T19:05:06.430Z,20.77
2023-04-18T19:10:01.855Z,20.27
2023-04-18T19:14:55.014Z,20.27
2023-04-18T19:19:46.991Z,20.50
2023-04-18T19:24:39.085Z,25.40
2023-04-18T19:29:32.923Z,27.27
2023-04-18T19:34:25.390Z,21.93
2023-04-18T19:39:18.247Z,25.70
2023-04-18T19:44:10.509Z,24.70
2023-04-18T19:49:02.568Z,23.70
2023-04-18T19:53:55.580Z,24.63
2023-04-18T19:58:49.016Z,22.77
2023-04-18T20:03:41.416Z,24.93
2023-04-18T20:08:36.334Z,23.73
2023-04-18T20:13:28.458Z,24.13
2023-04-18T20:18:21.083Z,26.87
2023-04-18T20:23:14.517Z,25.57
2023-04-18T20:28:06.722Z,23.60
2023-04-18T20:32:58.755Z,23.90
2023-04-18T20:37:50.908Z,23.80
2023-04-18T20:42:43.055Z,24.70
2023-04-18T20:47:35.082Z,23.00
2023-04-18T20:52:27.138Z,25.90
2023-04-18T20:57:19.933Z,23.83
2023-04-18T21:02:12.187Z,21.33
2023-04-18T21:07:04.343Z,21.97
2023-04-18T21:11:57.831Z,23.70
2023-04-18T21:16:49.864Z,23.63
2023-04-18T21:21:41.847Z,22.23
2023-04-18T21:26:33.870Z,23.00
2023-04-18T21:31:27.628Z,20.17
2023-04-18T21:36:20.024Z,20.87
2023-04-18T21:41:15.865Z,20.47
2023-04-18T21:46:08.063Z,21.63
2023-04-18T21:51:00.221Z,19.10
2023-04-18T21:55:52.299Z,18.80
2023-04-18T22:00:44.435Z,20.40
2023-04-18T22:05:37.127Z,20.90
2023-04-18T22:10:29.212Z,23.67
2023-04-18T22:15:22.897Z,23.40
2023-04-18T22:20:14.951Z,20.67
2023-04-18T22:25:11.383Z,21.53
2023-04-18T22:30:04.523Z,22.20
2023-04-18T22:34:56.844Z,20.07
2023-04-18T22:39:48.853Z,20.53
2023-04-18T22:44:41.086Z,21.43
2023-04-18T22:49:33.335Z,19.33
2023-04-18T22:54:25.835Z,21.47
2023-04-18T22:59:17.977Z,20.00
2023-04-18T23:04:10.126Z,18.63
2023-04-18T23:09:03.354Z,19.87
2023-04-18T23:13:55.483Z,22.87
2023-04-18T23:18:47.513Z,20.67
2023-04-18T23:23:39.557Z,18.63
2023-04-18T23:28:31.536Z,18.37
2023-04-18T23:33:23.678Z,15.17
2023-04-18T23:38:16.861Z,13.10
2023-04-18T23:43:08.864Z,11.63
2023-04-18T23:48:00.998Z,11.23
2023-04-18T23:52:53.139Z,11.03
2023-04-18T23:57:45.226Z,12.97
